SWR78 LSZH-LIPQ
Flight info
| Callsign | SWR78 |
|---|---|
| Flight time | 0h 50m |
| Altitude | 31000 |
| Route | DEGES Y170 ARGAX DCT RESIA DCT UNTAD DCT DIKEM DCT BABAG DCT MONFA M859 BARPI P28 RCH |
| Aircraft | A320/M-SDE3FGHIRWY/LB1 |
Departure
| Time | 2026-05-07 15:32 |
|---|---|
| Airport | Zürich Airport (LSZH) |
Arrival
| Time | 2026-05-07 16:22 |
|---|---|
| Airport | Trieste Airport (LIPQ) |
| Time | Latitude | Longitude | Altitude | Speed | Heading |
|---|---|---|---|---|---|
| 2026-05-07 15:09 | 47.45432 | 8.55691 | 1408 ft | 0 kts | 186° |
| 2026-05-07 15:14 | 47.45433 | 8.55691 | 1397 ft | 0 kts | 186° |
| 2026-05-07 15:21 | 47.45438 | 8.55692 | 1397 ft | 4 kts | 185° |
| 2026-05-07 15:21 | 47.45465 | 8.55694 | 1401 ft | 4 kts | 179° |
| 2026-05-07 15:21 | 47.45492 | 8.55691 | 1402 ft | 4 kts | 163° |
| 2026-05-07 15:22 | 47.45512 | 8.55674 | 1403 ft | 4 kts | 112° |
| 2026-05-07 15:22 | 47.45514 | 8.55671 | 1403 ft | 4 kts | 104° |
| 2026-05-07 15:22 | 47.45515 | 8.55665 | 1404 ft | 0 kts | 96° |
| 2026-05-07 15:25 | 47.45515 | 8.55666 | 1397 ft | 2 kts | 96° |
| 2026-05-07 15:26 | 47.45510 | 8.55737 | 1397 ft | 13 kts | 96° |
| 2026-05-07 15:26 | 47.45550 | 8.55834 | 1403 ft | 13 kts | 27° |
| 2026-05-07 15:26 | 47.45629 | 8.55890 | 1405 ft | 14 kts | 68° |
| 2026-05-07 15:26 | 47.45625 | 8.56044 | 1397 ft | 16 kts | 95° |
| 2026-05-07 15:27 | 47.45613 | 8.56231 | 1400 ft | 22 kts | 96° |
| 2026-05-07 15:27 | 47.45593 | 8.56485 | 1397 ft | 26 kts | 98° |
| 2026-05-07 15:27 | 47.45576 | 8.56720 | 1405 ft | 12 kts | 98° |
| 2026-05-07 15:27 | 47.45568 | 8.56848 | 1397 ft | 13 kts | 95° |
| 2026-05-07 15:28 | 47.45566 | 8.56975 | 1398 ft | 10 kts | 71° |
| 2026-05-07 15:28 | 47.45577 | 8.56997 | 1406 ft | 0 kts | 50° |
| 2026-05-07 15:29 | 47.45583 | 8.57004 | 1404 ft | 6 kts | 39° |
| 2026-05-07 15:29 | 47.45658 | 8.57032 | 1397 ft | 10 kts | 350° |
| 2026-05-07 15:29 | 47.45663 | 8.56995 | 1398 ft | 1 kts | 261° |
| 2026-05-07 15:30 | 47.45663 | 8.56991 | 1398 ft | 0 kts | 266° |
| 2026-05-07 15:30 | 47.45664 | 8.56990 | 1398 ft | 0 kts | 274° |
| 2026-05-07 15:31 | 47.45664 | 8.56989 | 1398 ft | 2 kts | 274° |
| 2026-05-07 15:31 | 47.45682 | 8.56712 | 1401 ft | 66 kts | 277° |
| 2026-05-07 15:32 | 47.45753 | 8.55690 | 1397 ft | 131 kts | 276° |
| 2026-05-07 15:32 | 47.45863 | 8.54161 | 1741 ft | 153 kts | 279° |
| 2026-05-07 15:32 | 47.45981 | 8.52604 | 2548 ft | 153 kts | 277° |
| 2026-05-07 15:32 | 47.46091 | 8.51064 | 3372 ft | 150 kts | 277° |
| 2026-05-07 15:33 | 47.46200 | 8.49437 | 3813 ft | 168 kts | 276° |
| 2026-05-07 15:33 | 47.46115 | 8.47676 | 4344 ft | 179 kts | 249° |
| 2026-05-07 15:33 | 47.45407 | 8.46049 | 4692 ft | 199 kts | 238° |
| 2026-05-07 15:33 | 47.44662 | 8.44202 | 5112 ft | 218 kts | 243° |
| 2026-05-07 15:34 | 47.43947 | 8.42217 | 5995 ft | 220 kts | 244° |
| 2026-05-07 15:34 | 47.43239 | 8.40188 | 6839 ft | 224 kts | 244° |
| 2026-05-07 15:34 | 47.42467 | 8.38186 | 7702 ft | 226 kts | 232° |
| 2026-05-07 15:34 | 47.41290 | 8.36682 | 8552 ft | 231 kts | 210° |
| 2026-05-07 15:35 | 47.39730 | 8.35975 | 9447 ft | 236 kts | 186° |
| 2026-05-07 15:35 | 47.38107 | 8.36278 | 10313 ft | 244 kts | 163° |
| 2026-05-07 15:35 | 47.36646 | 8.37602 | 11157 ft | 253 kts | 137° |
| 2026-05-07 15:35 | 47.35681 | 8.39792 | 11964 ft | 261 kts | 110° |
| 2026-05-07 15:36 | 47.35472 | 8.42467 | 12754 ft | 268 kts | 82° |
| 2026-05-07 15:36 | 47.36125 | 8.45032 | 13555 ft | 272 kts | 53° |
| 2026-05-07 15:36 | 47.37516 | 8.46899 | 14289 ft | 273 kts | 28° |
| 2026-05-07 15:36 | 47.39171 | 8.48295 | 15050 ft | 275 kts | 27° |
| 2026-05-07 15:37 | 47.40773 | 8.49930 | 15460 ft | 295 kts | 45° |
| 2026-05-07 15:37 | 47.41879 | 8.52626 | 15689 ft | 319 kts | 74° |
| 2026-05-07 15:37 | 47.41993 | 8.55957 | 15900 ft | 338 kts | 104° |
| 2026-05-07 15:37 | 47.41027 | 8.59209 | 16072 ft | 357 kts | 124° |
| 2026-05-07 15:38 | 47.39601 | 8.62312 | 16387 ft | 371 kts | 128° |
| 2026-05-07 15:38 | 47.38027 | 8.65370 | 17002 ft | 377 kts | 130° |
| 2026-05-07 15:38 | 47.36395 | 8.68421 | 17686 ft | 381 kts | 130° |
| 2026-05-07 15:38 | 47.34744 | 8.71509 | 18343 ft | 385 kts | 129° |
| 2026-05-07 15:39 | 47.33095 | 8.74648 | 18924 ft | 389 kts | 129° |
| 2026-05-07 15:39 | 47.31451 | 8.77839 | 19482 ft | 393 kts | 128° |
| 2026-05-07 15:39 | 47.29803 | 8.81084 | 20051 ft | 397 kts | 128° |
| 2026-05-07 15:39 | 47.28151 | 8.84364 | 20613 ft | 400 kts | 128° |
| 2026-05-07 15:40 | 47.26489 | 8.87675 | 21176 ft | 404 kts | 128° |
| 2026-05-07 15:40 | 47.24811 | 8.91009 | 21741 ft | 407 kts | 128° |
| 2026-05-07 15:40 | 47.23114 | 8.94368 | 22276 ft | 410 kts | 128° |
| 2026-05-07 15:40 | 47.21399 | 8.97748 | 22812 ft | 414 kts | 128° |
| 2026-05-07 15:41 | 47.19666 | 9.01155 | 23352 ft | 417 kts | 128° |
| 2026-05-07 15:41 | 47.17916 | 9.04587 | 23829 ft | 421 kts | 128° |
| 2026-05-07 15:41 | 47.16151 | 9.08041 | 24256 ft | 424 kts | 128° |
| 2026-05-07 15:41 | 47.14371 | 9.11519 | 24683 ft | 427 kts | 128° |
| 2026-05-07 15:42 | 47.12600 | 9.14973 | 25103 ft | 430 kts | 128° |
| 2026-05-07 15:42 | 47.10797 | 9.18491 | 25513 ft | 433 kts | 128° |
| 2026-05-07 15:42 | 47.08978 | 9.22042 | 25906 ft | 436 kts | 128° |
| 2026-05-07 15:42 | 47.07153 | 9.25604 | 26307 ft | 439 kts | 129° |
| 2026-05-07 15:43 | 47.05276 | 9.29144 | 26713 ft | 441 kts | 133° |
| 2026-05-07 15:43 | 47.03110 | 9.32313 | 27108 ft | 441 kts | 140° |
| 2026-05-07 15:43 | 47.00814 | 9.35338 | 27503 ft | 444 kts | 140° |
| 2026-05-07 15:43 | 46.98503 | 9.38379 | 27872 ft | 448 kts | 140° |
| 2026-05-07 15:44 | 46.96179 | 9.41435 | 28247 ft | 451 kts | 141° |
| 2026-05-07 15:44 | 46.93839 | 9.44514 | 28586 ft | 454 kts | 141° |
| 2026-05-07 15:44 | 46.91477 | 9.47626 | 28947 ft | 457 kts | 140° |
| 2026-05-07 15:44 | 46.89107 | 9.50746 | 29304 ft | 459 kts | 140° |
| 2026-05-07 15:45 | 46.86727 | 9.53870 | 29573 ft | 461 kts | 141° |
| 2026-05-07 15:45 | 46.84328 | 9.57014 | 29898 ft | 464 kts | 141° |
| 2026-05-07 15:45 | 46.81919 | 9.60167 | 30201 ft | 466 kts | 141° |
| 2026-05-07 15:45 | 46.79495 | 9.63333 | 30465 ft | 469 kts | 141° |
| 2026-05-07 15:46 | 46.74592 | 9.69726 | 30932 ft | 476 kts | 142° |
| 2026-05-07 15:46 | 46.72125 | 9.72938 | 31012 ft | 471 kts | 142° |
| 2026-05-07 15:47 | 46.67308 | 9.79201 | 31027 ft | 460 kts | 142° |
| 2026-05-07 15:47 | 46.62536 | 9.85378 | 31030 ft | 459 kts | 142° |
| 2026-05-07 15:48 | 46.57774 | 9.91539 | 31031 ft | 458 kts | 142° |
| 2026-05-07 15:48 | 46.53007 | 9.97690 | 31008 ft | 458 kts | 142° |
| 2026-05-07 15:49 | 46.48461 | 10.04235 | 31002 ft | 466 kts | 131° |
| 2026-05-07 15:49 | 46.45252 | 10.12394 | 30987 ft | 473 kts | 117° |
| 2026-05-07 15:50 | 46.42504 | 10.21063 | 30979 ft | 473 kts | 117° |
| 2026-05-07 15:50 | 46.39723 | 10.29724 | 30968 ft | 474 kts | 117° |
| 2026-05-07 15:51 | 46.36926 | 10.38377 | 30983 ft | 475 kts | 117° |
| 2026-05-07 15:51 | 46.34129 | 10.47039 | 30992 ft | 475 kts | 117° |
| 2026-05-07 15:52 | 46.31330 | 10.55696 | 31002 ft | 475 kts | 118° |
| 2026-05-07 15:52 | 46.28977 | 10.62945 | 31015 ft | 475 kts | 118° |
| 2026-05-07 15:53 | 46.26182 | 10.71517 | 31015 ft | 475 kts | 118° |
| 2026-05-07 15:53 | 46.23360 | 10.80151 | 31022 ft | 475 kts | 118° |
| 2026-05-07 15:54 | 46.20537 | 10.88768 | 31048 ft | 475 kts | 118° |
| 2026-05-07 15:54 | 46.17768 | 10.97373 | 31052 ft | 473 kts | 117° |
| 2026-05-07 15:55 | 46.15048 | 11.05872 | 31043 ft | 473 kts | 117° |
| 2026-05-07 15:55 | 46.12268 | 11.14480 | 31050 ft | 473 kts | 118° |
| 2026-05-07 15:56 | 46.09475 | 11.23082 | 31034 ft | 474 kts | 118° |
| 2026-05-07 15:56 | 46.06667 | 11.31702 | 31023 ft | 476 kts | 118° |
| 2026-05-07 15:57 | 46.03862 | 11.40252 | 31004 ft | 475 kts | 119° |
| 2026-05-07 15:57 | 46.02436 | 11.44398 | 31004 ft | 474 kts | 120° |
| 2026-05-07 15:58 | 45.99375 | 11.52725 | 30995 ft | 473 kts | 122° |
| 2026-05-07 15:58 | 45.96231 | 11.61041 | 30956 ft | 474 kts | 122° |
| 2026-05-07 15:59 | 45.93098 | 11.69420 | 30950 ft | 477 kts | 122° |
| 2026-05-07 15:59 | 45.89979 | 11.77850 | 30955 ft | 479 kts | 122° |
| 2026-05-07 16:00 | 45.86853 | 11.86312 | 30959 ft | 480 kts | 122° |
| 2026-05-07 16:00 | 45.83707 | 11.94761 | 30945 ft | 480 kts | 122° |
| 2026-05-07 16:01 | 45.80549 | 12.03191 | 30943 ft | 480 kts | 122° |
| 2026-05-07 16:01 | 45.77391 | 12.11626 | 30944 ft | 480 kts | 122° |
| 2026-05-07 16:02 | 45.74215 | 12.20070 | 30961 ft | 484 kts | 122° |
| 2026-05-07 16:02 | 45.72620 | 12.24296 | 30406 ft | 480 kts | 123° |
| 2026-05-07 16:02 | 45.71031 | 12.28499 | 29575 ft | 481 kts | 123° |
| 2026-05-07 16:02 | 45.69441 | 12.32698 | 28923 ft | 478 kts | 123° |
| 2026-05-07 16:03 | 45.67866 | 12.36860 | 28375 ft | 475 kts | 123° |
| 2026-05-07 16:03 | 45.66296 | 12.40997 | 27835 ft | 470 kts | 123° |
| 2026-05-07 16:03 | 45.64745 | 12.45082 | 27304 ft | 466 kts | 123° |
| 2026-05-07 16:03 | 45.63225 | 12.49080 | 26793 ft | 461 kts | 123° |
| 2026-05-07 16:04 | 45.61699 | 12.53084 | 26270 ft | 456 kts | 122° |
| 2026-05-07 16:04 | 45.60181 | 12.57051 | 25777 ft | 452 kts | 122° |
| 2026-05-07 16:04 | 45.58689 | 12.60943 | 25290 ft | 447 kts | 123° |
| 2026-05-07 16:04 | 45.57193 | 12.64841 | 24797 ft | 443 kts | 123° |
| 2026-05-07 16:05 | 45.55719 | 12.68678 | 24323 ft | 439 kts | 122° |
| 2026-05-07 16:05 | 45.54258 | 12.72479 | 23829 ft | 435 kts | 122° |
| 2026-05-07 16:05 | 45.52809 | 12.76248 | 23312 ft | 432 kts | 122° |
| 2026-05-07 16:05 | 45.51371 | 12.79979 | 22771 ft | 427 kts | 122° |
| 2026-05-07 16:06 | 45.49950 | 12.83666 | 22287 ft | 423 kts | 122° |
| 2026-05-07 16:06 | 45.48539 | 12.87328 | 21817 ft | 419 kts | 122° |
| 2026-05-07 16:06 | 45.47141 | 12.90954 | 21316 ft | 415 kts | 122° |
| 2026-05-07 16:06 | 45.45755 | 12.94539 | 20859 ft | 413 kts | 122° |
| 2026-05-07 16:07 | 45.44371 | 12.98105 | 20402 ft | 410 kts | 122° |
| 2026-05-07 16:07 | 45.42995 | 13.01642 | 19954 ft | 407 kts | 122° |
| 2026-05-07 16:07 | 45.41708 | 13.05212 | 19493 ft | 406 kts | 113° |
| 2026-05-07 16:07 | 45.41040 | 13.09106 | 19057 ft | 406 kts | 96° |
| 2026-05-07 16:08 | 45.41139 | 13.13051 | 18646 ft | 403 kts | 79° |
| 2026-05-07 16:08 | 45.42015 | 13.16845 | 18202 ft | 397 kts | 61° |
| 2026-05-07 16:08 | 45.43528 | 13.20014 | 17738 ft | 389 kts | 45° |
| 2026-05-07 16:08 | 45.45389 | 13.22776 | 17258 ft | 384 kts | 39° |
| 2026-05-07 16:09 | 45.47543 | 13.24922 | 16794 ft | 374 kts | 22° |
| 2026-05-07 16:09 | 45.49968 | 13.26038 | 16322 ft | 363 kts | 4° |
| 2026-05-07 16:09 | 45.52457 | 13.26321 | 15863 ft | 357 kts | 359° |
| 2026-05-07 16:09 | 45.54928 | 13.26531 | 15419 ft | 353 kts | 359° |
| 2026-05-07 16:10 | 45.57333 | 13.26745 | 14957 ft | 339 kts | 360° |
| 2026-05-07 16:10 | 45.59637 | 13.26954 | 14525 ft | 326 kts | 360° |
| 2026-05-07 16:10 | 45.61859 | 13.27154 | 14095 ft | 316 kts | 360° |
| 2026-05-07 16:10 | 45.64034 | 13.27346 | 13657 ft | 314 kts | 360° |
| 2026-05-07 16:11 | 45.66225 | 13.27535 | 13170 ft | 316 kts | 360° |
| 2026-05-07 16:11 | 45.68422 | 13.27724 | 12694 ft | 317 kts | 0° |
| 2026-05-07 16:11 | 45.70624 | 13.27915 | 12257 ft | 318 kts | 0° |
| 2026-05-07 16:11 | 45.72835 | 13.28107 | 11796 ft | 318 kts | 0° |
| 2026-05-07 16:12 | 45.75047 | 13.28303 | 11346 ft | 319 kts | 0° |
| 2026-05-07 16:12 | 45.77258 | 13.28504 | 10903 ft | 318 kts | 0° |
| 2026-05-07 16:12 | 45.79467 | 13.28701 | 10466 ft | 317 kts | 1° |
| 2026-05-07 16:12 | 45.81632 | 13.28899 | 10025 ft | 305 kts | 1° |
| 2026-05-07 16:13 | 45.83703 | 13.29090 | 9561 ft | 293 kts | 1° |
| 2026-05-07 16:13 | 45.85702 | 13.29280 | 9088 ft | 283 kts | 2° |
| 2026-05-07 16:13 | 45.87634 | 13.29580 | 8616 ft | 275 kts | 13° |
| 2026-05-07 16:13 | 45.89347 | 13.30709 | 8153 ft | 270 kts | 36° |
| 2026-05-07 16:14 | 45.90593 | 13.32650 | 7703 ft | 263 kts | 60° |
| 2026-05-07 16:14 | 45.91210 | 13.35074 | 7258 ft | 255 kts | 78° |
| 2026-05-07 16:14 | 45.91830 | 13.37407 | 6805 ft | 249 kts | 57° |
| 2026-05-07 16:14 | 45.92864 | 13.39313 | 6382 ft | 243 kts | 40° |
| 2026-05-07 16:15 | 45.94353 | 13.40376 | 5909 ft | 235 kts | 6° |
| 2026-05-07 16:15 | 45.95921 | 13.40192 | 5452 ft | 228 kts | 341° |
| 2026-05-07 16:15 | 45.97243 | 13.39058 | 4998 ft | 219 kts | 307° |
| 2026-05-07 16:15 | 45.97855 | 13.37132 | 4541 ft | 212 kts | 272° |
| 2026-05-07 16:16 | 45.97718 | 13.35050 | 4078 ft | 208 kts | 261° |
| 2026-05-07 16:16 | 45.97579 | 13.33008 | 3725 ft | 201 kts | 264° |
| 2026-05-07 16:16 | 45.97471 | 13.31059 | 3470 ft | 192 kts | 261° |
| 2026-05-07 16:16 | 45.96921 | 13.29387 | 3237 ft | 188 kts | 224° |
| 2026-05-07 16:17 | 45.95760 | 13.28578 | 3054 ft | 187 kts | 194° |
| 2026-05-07 16:17 | 45.94466 | 13.28265 | 2983 ft | 189 kts | 189° |
| 2026-05-07 16:17 | 45.93161 | 13.28017 | 2990 ft | 189 kts | 188° |
| 2026-05-07 16:17 | 45.91852 | 13.27778 | 2992 ft | 189 kts | 189° |
| 2026-05-07 16:18 | 45.90545 | 13.27545 | 2985 ft | 190 kts | 188° |
| 2026-05-07 16:18 | 45.89231 | 13.27302 | 2992 ft | 191 kts | 188° |
| 2026-05-07 16:18 | 45.87911 | 13.27049 | 2998 ft | 191 kts | 188° |
| 2026-05-07 16:18 | 45.86589 | 13.26848 | 2984 ft | 191 kts | 181° |
| 2026-05-07 16:19 | 45.85282 | 13.27187 | 2992 ft | 193 kts | 161° |
| 2026-05-07 16:19 | 45.84125 | 13.28169 | 3000 ft | 195 kts | 140° |
| 2026-05-07 16:19 | 45.83279 | 13.29688 | 3008 ft | 197 kts | 119° |
| 2026-05-07 16:19 | 45.82798 | 13.31540 | 2853 ft | 201 kts | 106° |
| 2026-05-07 16:20 | 45.82647 | 13.33501 | 2540 ft | 189 kts | 90° |
| 2026-05-07 16:20 | 45.82690 | 13.35302 | 2102 ft | 176 kts | 87° |
| 2026-05-07 16:20 | 45.82775 | 13.37043 | 1459 ft | 175 kts | 84° |
| 2026-05-07 16:20 | 45.82832 | 13.38823 | 781 ft | 176 kts | 90° |
| 2026-05-07 16:21 | 45.82831 | 13.40431 | 613 ft | 152 kts | 92° |
| 2026-05-07 16:21 | 45.82813 | 13.41896 | 405 ft | 142 kts | 92° |
| 2026-05-07 16:21 | 45.82816 | 13.43291 | 262 ft | 138 kts | 93° |
| 2026-05-07 16:21 | 45.82799 | 13.44655 | 110 ft | 136 kts | 92° |
| 2026-05-07 16:22 | 45.82790 | 13.45957 | 46 ft | 117 kts | 89° |
| 2026-05-07 16:22 | 45.82792 | 13.46861 | 45 ft | 62 kts | 91° |
| 2026-05-07 16:22 | 45.82781 | 13.47348 | 47 ft | 45 kts | 89° |
| 2026-05-07 16:22 | 45.82748 | 13.47678 | 47 ft | 23 kts | 145° |
| 2026-05-07 16:23 | 45.82623 | 13.47826 | 46 ft | 25 kts | 141° |
| 2026-05-07 16:23 | 45.82484 | 13.47986 | 46 ft | 26 kts | 139° |
| 2026-05-07 16:23 | 45.82345 | 13.48154 | 46 ft | 21 kts | 141° |
| 2026-05-07 16:23 | 45.82259 | 13.48306 | 46 ft | 16 kts | 92° |
| 2026-05-07 16:24 | 45.82259 | 13.48377 | 46 ft | 0 kts | 138° |
| 2026-05-07 16:24 | 45.82213 | 13.48389 | 44 ft | 12 kts | 170° |
| 2026-05-07 16:24 | 45.82198 | 13.48393 | 46 ft | 4 kts | 170° |